Terminal Aerodrome Forecast
Issued by NWS Green Bay, WI

Home | Current Version | Previous Version | Text Only | Print | Product List | Glossary On
Versions: 1 2 3 4 5 6 7 8 9 10 11 12 13 14 15 16 17 18 19 20
000
FTUS43 KGRB 281131
TAFGRB
TAF
KGRB 281131Z 2812/2912 26010G18KT P6SM OVC025
      TEMPO 2814/2816 SCT030
     FM281600 24009G14KT P6SM SCT040
     FM282000 26007KT P6SM BKN060
     FM290000 32004KT P6SM BKN050
     FM290300 01007KT P6SM BKN100=

USA.gov is the U.S. government's official web portal to all federal, state and local government web resources and services.